Airfield :
LOGIN :

Register | Disclaimer

   EN    FR    IT 

 










Legend :    VFR   Marginal VFR   IFR   Intensive IFR   Very Intensive IFR
Visi :
Ceiling :
>= 8 km
>= 3000ft
5 to 8 km
1000 to 3000 ft
1500m to 5 km
500 to 1000 ft
800 to 1500m
200 to 500 ft
< 800m
< 200 ft
Symbols :   Thunderstorms  Fog  Heavy snow  Heavy precipitations  Wind > 20 kt
SIGMETs :     Misc.  Thunderstorms  Icing  Turbulence  Mountain Waves  Volcanic Ashes







- Airport Elevation : 495 ft
- IATA code : BUD


LHBP - Budapest Ferihegy

CURRENT METAR :
  • 201530Z 14005KT 9999 SCT035 26/20 Q1011 TEMPO FEW033TCU SCT037

EXPIRED METARs :
  • 201500Z 12006KT 080V180 9999 SCT035 27/19 Q1011 NOSIG
  • 201430Z 11005KT 9999 SCT035 26/18 Q1011 NOSIG
  • 201400Z 13004KT 9999 SCT034 26/19 Q1011 NOSIG
  • 201330Z 16005KT 100V230 9999 SCT032 26/21 Q1011 NOSIG
  • 201300Z 15004KT 090V240 9999 FEW030TCU BKN034 26/20 Q1012 NOSIG

TAF TAF LHBP
Valid from the 20 at 12:00 until the 21 at 12:00 UTC


201115Z 2012/2112 10005KT 9999 SCT038
TEMPO 2012/2024 VRB15G25KT 4000 TSRA SHRA SCT030CB SCT038
BECMG 2016/2018 VRB03KT CAVOK
BECMG 2106/2108 31005KT BKN016
BECMG 2108/2110 25005KT SCT038
BECMG 2110/2112 VRB10G20KT 5000 TSRA SHRA SCT030CB SCT038
No reported NOTAMs for that airfield.
2 SIGMETs reported for the Budapest FIR (LHCC) :
 
SIGMET 06 cancelation
LHCC SIGMET 07 VALID 201540/201600 LHBP
LHCC BUDAPEST FIR CNL SIGMET 06 101330/101600=
SIGMET 06  CANCELED :
Embedded thunderstorms
LHCC SIGMET 06 VALID 201330/201600 LHBP
LHCC BUDAPEST FIR EMBD TS FCST WI N4729 E02045 - N4724 E02157 - N4622 E02112 - N4629 E02003 - N4729 E02045 TOP FL360 MOV N NC=



MET'MAP, your aeronautical weather chart ! - Copyright ORBIFLY December 2007 - Disclaimer

ORBIFLY MET'MAP TEAM :

Programming & Development : Alexandra Zaïnal
Concept & Development : Baudouin d'Aumeries
Co-Development & Prog : Marc-Olivier Méhu
Technical & hardware support : Manuel Goepfert

Contact : metmap@orbifly.com




SOURCES & CREDITS :

   NOAA